Mascot, Virginia
Current Conditions -  °F | °C
As of 4:15 AM on Monday 24 Nov 2014 (Local Time) from KFYJ Reporting Station
Overcast Overcast  
Wind Chill: 69°   Ceiling: 1400
Heat Index: 69°   Visibility: 10mi
Dew Point: 64°   Wind: 16mph
Humidity: 84%   Direction: 170°S
Pressure: 29.75"   Gusts: 22mph
Location:  37.63°N, 76.71°W
Report Text: KFYJ 240915Z AUTO 17014G19KT 10SM BKN014 OVC049 21/18 A2975 RMK AO2 T02050178
Loading
Personal Weather Stations






























Interactive Weather Map New forecast layout! Learn more

10-Day Weather Forecast

Advertisements
Track Severe Weather on mobile